createdAt,value
2023-04-02T00:02:21.383Z,8.33
2023-04-02T00:05:30.690Z,8.41
2023-04-02T00:08:10.536Z,8.39
2023-04-02T00:10:48.648Z,8.19
2023-04-02T00:13:15.643Z,8.22
2023-04-02T00:15:44.905Z,8.17
2023-04-02T00:18:25.318Z,8.19
2023-04-02T00:21:12.132Z,8.18
2023-04-02T00:23:44.006Z,8.23
2023-04-02T00:26:31.461Z,8.22
2023-04-02T00:29:00.511Z,8.14
2023-04-02T00:31:27.532Z,8.03
2023-04-02T00:33:54.495Z,8.09
2023-04-02T00:36:22.497Z,8.10
2023-04-02T00:38:49.370Z,8.19
2023-04-02T00:41:25.192Z,8.23
2023-04-02T00:43:52.249Z,8.24
2023-04-02T00:46:24.429Z,8.24
2023-04-02T00:48:56.667Z,8.34
2023-04-02T00:51:31.261Z,8.18
2023-04-02T00:54:02.096Z,8.22
2023-04-02T00:56:32.752Z,8.17
2023-04-02T00:58:59.615Z,8.10
2023-04-02T01:01:29.627Z,8.05
2023-04-02T01:04:01.419Z,8.15
2023-04-02T01:06:34.482Z,8.12
2023-04-02T01:09:13.270Z,8.07
2023-04-02T01:12:00.218Z,8.18
2023-04-02T01:14:41.443Z,7.98
2023-04-02T01:17:28.589Z,8.02
2023-04-02T01:20:25.582Z,7.96
2023-04-02T01:23:06.234Z,7.87
2023-04-02T01:25:38.954Z,7.77
2023-04-02T01:28:19.902Z,7.79
2023-04-02T01:30:52.337Z,7.86
2023-04-02T01:33:22.207Z,7.90
2023-04-02T01:35:55.837Z,7.97
2023-04-02T01:38:46.746Z,7.91
2023-04-02T01:41:29.927Z,7.96
2023-04-02T01:44:03.714Z,7.99
2023-04-02T01:46:35.645Z,7.91
2023-04-02T01:49:10.663Z,7.86
2023-04-02T01:51:43.158Z,7.77
2023-04-02T01:54:11.406Z,7.90
2023-04-02T01:56:38.393Z,7.96
2023-04-02T01:59:06.173Z,7.90
2023-04-02T02:01:54.651Z,7.85
2023-04-02T02:04:22.000Z,7.72
2023-04-02T02:06:49.507Z,7.65
2023-04-02T02:09:22.148Z,7.59
2023-04-02T02:11:49.689Z,7.60
2023-04-02T02:14:19.329Z,7.56
2023-04-02T02:16:46.969Z,7.63
2023-04-02T02:19:22.848Z,7.60
2023-04-02T02:21:54.411Z,7.63
2023-04-02T02:24:31.881Z,7.63
2023-04-02T02:27:23.021Z,7.69
2023-04-02T02:29:53.021Z,7.69
2023-04-02T02:32:21.304Z,7.53
2023-04-02T02:35:08.273Z,7.57
2023-04-02T02:37:41.438Z,7.56
2023-04-02T02:40:22.073Z,7.59
2023-04-02T02:42:51.762Z,7.51
2023-04-02T02:45:21.651Z,7.46
2023-04-02T02:47:49.093Z,7.33
2023-04-02T02:50:31.909Z,7.50
2023-04-02T02:53:00.609Z,7.40
2023-04-02T02:55:32.999Z,7.46
2023-04-02T02:58:04.800Z,7.54
2023-04-02T03:00:32.232Z,7.48
2023-04-02T03:02:59.300Z,7.53
2023-04-02T03:05:28.028Z,7.46
2023-04-02T03:07:56.570Z,7.42
2023-04-02T03:10:27.679Z,7.26
2023-04-02T03:13:26.365Z,7.32
2023-04-02T03:16:04.140Z,7.35
2023-04-02T03:18:59.455Z,7.43
2023-04-02T03:21:33.152Z,7.34
2023-04-02T03:24:01.704Z,7.37
2023-04-02T03:26:40.339Z,7.33
2023-04-02T03:29:15.698Z,7.33
2023-04-02T03:31:48.255Z,7.30
2023-04-02T03:34:25.748Z,7.25
2023-04-02T03:37:07.543Z,7.29
2023-04-02T03:39:47.100Z,7.11
2023-04-02T03:42:26.358Z,7.11
2023-04-02T03:44:57.533Z,7.11
2023-04-02T03:47:27.406Z,7.14
2023-04-02T03:50:17.218Z,7.19
2023-04-02T03:52:44.108Z,7.14
2023-04-02T03:55:23.495Z,7.01
2023-04-02T03:58:00.583Z,7.00
2023-04-02T04:00:33.755Z,7.07
2023-04-02T04:03:08.380Z,7.15
2023-04-02T04:05:38.082Z,7.15
2023-04-02T04:08:14.551Z,6.93
2023-04-02T04:10:42.837Z,6.97
2023-04-02T04:13:14.242Z,7.11
2023-04-02T04:15:47.818Z,7.17
2023-04-02T04:18:52.780Z,7.25
2023-04-02T04:21:37.303Z,7.31
2023-04-02T04:24:14.081Z,7.26
2023-04-02T04:27:17.350Z,7.24
2023-04-02T04:29:55.135Z,7.26
2023-04-02T04:32:32.456Z,7.29
2023-04-02T04:35:19.847Z,7.07
2023-04-02T04:37:50.012Z,6.95
2023-04-02T04:40:21.533Z,6.63
2023-04-02T04:42:49.009Z,6.72
2023-04-02T04:45:21.745Z,6.72
2023-04-02T04:47:54.146Z,6.77
2023-04-02T04:50:42.061Z,6.85
2023-04-02T04:53:16.317Z,7.00
2023-04-02T04:55:48.645Z,7.06
2023-04-02T04:58:28.255Z,7.13
2023-04-02T05:01:07.725Z,6.90
2023-04-02T05:04:25.274Z,6.69
2023-04-02T05:06:53.362Z,6.66
2023-04-02T05:09:24.947Z,6.67
2023-04-02T05:12:31.329Z,6.68
2023-04-02T05:15:02.412Z,6.63
2023-04-02T05:17:50.996Z,6.50
2023-04-02T05:20:23.500Z,6.42
2023-04-02T05:22:55.037Z,6.37
2023-04-02T05:25:33.003Z,6.47
2023-04-02T05:28:05.971Z,6.66
2023-04-02T05:30:46.834Z,6.78
2023-04-02T05:33:24.584Z,6.82
2023-04-02T05:35:56.194Z,6.74
2023-04-02T05:38:26.293Z,6.76
2023-04-02T05:41:04.745Z,6.78
2023-04-02T05:43:34.557Z,6.71
2023-04-02T05:46:05.882Z,6.47
2023-04-02T05:48:40.873Z,6.40
2023-04-02T05:51:10.168Z,6.40
2023-04-02T05:54:00.031Z,6.42
2023-04-02T05:56:43.471Z,6.45
2023-04-02T05:59:23.480Z,6.45
2023-04-02T06:02:11.598Z,6.40
2023-04-02T06:04:55.833Z,6.37
2023-04-02T06:07:40.565Z,6.51
2023-04-02T06:10:11.088Z,6.49
2023-04-02T06:13:05.741Z,6.56
2023-04-02T06:15:34.088Z,6.34
2023-04-02T06:18:06.939Z,6.27
2023-04-02T06:20:34.199Z,6.26
2023-04-02T06:23:05.135Z,6.39
2023-04-02T06:25:35.866Z,6.28
2023-04-02T06:28:05.847Z,6.29
2023-04-02T06:30:35.358Z,6.31
2023-04-02T06:33:02.143Z,6.29
2023-04-02T06:35:28.887Z,6.27
2023-04-02T06:37:57.910Z,6.30
2023-04-02T06:40:33.836Z,6.18
2023-04-02T06:43:08.406Z,6.09
2023-04-02T06:45:40.122Z,6.13
2023-04-02T06:48:20.190Z,6.24
2023-04-02T06:51:03.732Z,6.18
2023-04-02T06:53:53.595Z,6.13
2023-04-02T06:56:49.235Z,6.18
2023-04-02T06:59:16.802Z,6.21
2023-04-02T07:01:57.533Z,6.16
2023-04-02T07:04:24.549Z,6.26
2023-04-02T07:06:51.515Z,6.36
2023-04-02T07:09:19.107Z,6.40
2023-04-02T07:11:51.224Z,6.35
2023-04-02T07:14:17.936Z,6.38
2023-04-02T07:16:44.804Z,6.41
2023-04-02T07:19:21.984Z,6.51
2023-04-02T07:21:49.379Z,6.59
2023-04-02T07:24:16.202Z,6.60
2023-04-02T07:26:43.146Z,6.64
2023-04-02T07:29:14.975Z,6.71
2023-04-02T07:31:42.064Z,6.65
2023-04-02T07:34:09.627Z,6.44
2023-04-02T07:36:36.609Z,6.30
2023-04-02T07:39:04.155Z,6.34
2023-04-02T07:41:30.866Z,6.40
2023-04-02T07:43:57.627Z,6.46
2023-04-02T07:46:24.765Z,6.50
2023-04-02T07:48:51.535Z,6.39
2023-04-02T07:51:23.779Z,6.25
2023-04-02T07:53:55.958Z,6.27
2023-04-02T07:56:24.599Z,6.28
2023-04-02T07:58:51.704Z,6.33
2023-04-02T08:01:19.655Z,6.38
2023-04-02T08:03:47.212Z,6.48
2023-04-02T08:06:14.051Z,6.49
2023-04-02T08:08:40.922Z,6.40
2023-04-02T08:11:07.787Z,6.36
2023-04-02T08:13:34.724Z,6.42
2023-04-02T08:16:02.436Z,6.44
2023-04-02T08:18:30.624Z,6.50
2023-04-02T08:20:58.177Z,6.33
2023-04-02T08:23:25.627Z,6.31
2023-04-02T08:25:53.025Z,6.42
2023-04-02T08:28:21.419Z,6.51
2023-04-02T08:30:51.708Z,6.53
2023-04-02T08:33:19.159Z,6.61
2023-04-02T08:35:49.856Z,6.59
2023-04-02T08:38:21.800Z,6.65
2023-04-02T08:40:53.664Z,6.63
2023-04-02T08:43:39.179Z,6.66
2023-04-02T08:46:18.801Z,6.68
2023-04-02T08:48:55.628Z,6.71
2023-04-02T08:51:34.872Z,6.81
2023-04-02T08:54:28.025Z,6.99
2023-04-02T08:57:40.271Z,7.02
2023-04-02T09:00:24.562Z,6.86
2023-04-02T09:02:56.995Z,6.71
2023-04-02T09:05:29.159Z,6.86
2023-04-02T09:07:59.315Z,6.98
2023-04-02T09:10:36.154Z,7.06
2023-04-02T09:13:03.218Z,7.12
2023-04-02T09:15:34.528Z,7.02
2023-04-02T09:18:13.771Z,6.83
2023-04-02T09:20:41.026Z,6.77
2023-04-02T09:23:16.416Z,6.86
2023-04-02T09:26:03.031Z,6.89
2023-04-02T09:28:31.405Z,6.96
2023-04-02T09:31:19.978Z,6.90
2023-04-02T09:33:49.230Z,6.92
2023-04-02T09:36:20.875Z,7.01
2023-04-02T09:38:59.198Z,7.07
2023-04-02T09:41:29.388Z,7.24
2023-04-02T09:44:14.560Z,7.01
2023-04-02T09:46:54.100Z,7.06
2023-04-02T09:49:26.619Z,7.16
2023-04-02T09:52:12.913Z,7.08
2023-04-02T09:54:41.821Z,7.13
2023-04-02T09:57:38.928Z,7.18
2023-04-02T10:00:41.741Z,7.26
2023-04-02T10:03:29.546Z,7.37
2023-04-02T10:06:14.414Z,7.40
2023-04-02T10:08:45.721Z,7.44
2023-04-02T10:11:46.274Z,7.59
2023-04-02T10:14:21.965Z,7.62
2023-04-02T10:16:54.406Z,7.50
2023-04-02T10:19:42.229Z,7.45
2023-04-02T10:22:32.408Z,7.52
2023-04-02T10:24:59.476Z,7.42
2023-04-02T10:27:52.254Z,7.45
2023-04-02T10:30:27.440Z,7.59
2023-04-02T10:33:01.335Z,7.69
2023-04-02T10:35:48.450Z,7.80
2023-04-02T10:38:31.291Z,7.95
2023-04-02T10:41:01.725Z,7.74
2023-04-02T10:43:37.541Z,7.82
2023-04-02T10:46:33.194Z,7.79
2023-04-02T10:49:52.239Z,7.72
2023-04-02T10:52:22.252Z,7.82
2023-04-02T10:54:51.049Z,7.75
2023-04-02T10:57:42.270Z,7.53
2023-04-02T11:00:12.710Z,7.54
2023-04-02T11:02:58.712Z,7.68
2023-04-02T11:05:44.289Z,7.83
2023-04-02T11:08:26.177Z,7.77
2023-04-02T11:10:58.567Z,7.88
2023-04-02T11:13:41.787Z,7.92
2023-04-02T11:16:08.592Z,7.85
2023-04-02T11:18:38.946Z,7.67
2023-04-02T11:21:27.388Z,7.72
2023-04-02T11:24:01.045Z,7.69
2023-04-02T11:26:31.769Z,7.70
2023-04-02T11:29:29.050Z,7.62
2023-04-02T11:32:20.852Z,7.61
2023-04-02T11:34:53.806Z,7.65
2023-04-02T11:37:45.168Z,7.62
2023-04-02T11:40:12.014Z,7.79
2023-04-02T11:42:42.652Z,7.82
2023-04-02T11:45:21.808Z,7.82
2023-04-02T11:48:06.192Z,7.88
2023-04-02T11:50:34.643Z,7.86
2023-04-02T11:53:05.579Z,7.90
2023-04-02T11:55:33.957Z,7.89
2023-04-02T11:58:09.775Z,7.98
2023-04-02T12:01:00.933Z,7.89
2023-04-02T12:03:58.784Z,7.91
2023-04-02T12:06:47.192Z,7.63
2023-04-02T12:09:23.663Z,7.63
2023-04-02T12:11:52.251Z,7.78
2023-04-02T12:14:33.182Z,7.79
2023-04-02T12:17:00.039Z,7.72
2023-04-02T12:19:27.529Z,7.81
2023-04-02T12:21:54.635Z,7.94
2023-04-02T12:24:23.483Z,8.02
2023-04-02T12:27:28.020Z,8.15
2023-04-02T12:29:56.256Z,8.13
2023-04-02T12:32:30.919Z,8.31
2023-04-02T12:34:58.533Z,8.28
2023-04-02T12:37:29.505Z,8.18
2023-04-02T12:39:56.510Z,8.21
2023-04-02T12:42:41.513Z,7.98
2023-04-02T12:45:22.841Z,8.12
2023-04-02T12:47:49.636Z,8.18
2023-04-02T12:50:26.759Z,8.28
2023-04-02T12:52:55.259Z,8.34
2023-04-02T12:55:29.757Z,8.20
2023-04-02T12:57:58.013Z,8.24
2023-04-02T13:00:29.692Z,8.33
2023-04-02T13:03:23.336Z,8.21
2023-04-02T13:05:52.837Z,8.33
2023-04-02T13:08:26.517Z,8.26
2023-04-02T13:10:55.806Z,8.36
2023-04-02T13:13:30.327Z,8.38
2023-04-02T13:16:06.215Z,8.02
2023-04-02T13:18:34.844Z,8.09
2023-04-02T13:21:03.756Z,8.15
2023-04-02T13:23:30.566Z,8.25
2023-04-02T13:25:57.779Z,8.10
2023-04-02T13:28:24.717Z,8.27
2023-04-02T13:30:51.626Z,8.38
2023-04-02T13:33:18.634Z,8.45
2023-04-02T13:35:45.689Z,8.60
2023-04-02T13:38:12.705Z,8.62
2023-04-02T13:40:39.542Z,8.67
2023-04-02T13:43:07.706Z,8.66
2023-04-02T13:45:37.089Z,8.64
2023-04-02T13:48:04.602Z,8.66
2023-04-02T13:50:33.277Z,8.75
2023-04-02T13:53:07.200Z,8.84
2023-04-02T13:55:38.113Z,8.82
2023-04-02T13:58:05.559Z,8.93
2023-04-02T14:00:32.665Z,8.86
2023-04-02T14:03:03.989Z,8.83
2023-04-02T14:05:30.757Z,8.87
2023-04-02T14:07:57.457Z,8.92
2023-04-02T14:11:09.566Z,8.96
2023-04-02T14:13:55.108Z,9.16
2023-04-02T14:16:59.283Z,9.42
2023-04-02T14:19:41.646Z,9.58
2023-04-02T14:22:11.427Z,9.58
2023-04-02T14:24:56.364Z,10.03
2023-04-02T14:27:36.331Z,10.50
2023-04-02T14:30:26.677Z,10.42
2023-04-02T14:32:59.495Z,11.06
2023-04-02T14:35:34.641Z,11.40
2023-04-02T14:38:14.274Z,11.42
2023-04-02T14:41:00.242Z,12.07
2023-04-02T14:43:40.153Z,12.38
2023-04-02T14:46:08.838Z,12.06
2023-04-02T14:48:43.928Z,11.98
2023-04-02T14:51:16.387Z,12.24
2023-04-02T14:53:51.711Z,12.55
2023-04-02T14:56:20.242Z,12.52
2023-04-02T14:58:53.694Z,12.82
2023-04-02T15:01:28.294Z,12.64
2023-04-02T15:04:04.678Z,12.84
2023-04-02T15:06:36.284Z,12.89
2023-04-02T15:09:09.372Z,13.01
2023-04-02T15:11:38.700Z,13.33
2023-04-02T15:14:25.872Z,13.27
2023-04-02T15:16:52.583Z,13.28
2023-04-02T15:19:19.811Z,13.09
2023-04-02T15:22:14.651Z,12.68
2023-04-02T15:25:09.130Z,12.37
2023-04-02T15:28:01.393Z,12.71
2023-04-02T15:30:33.297Z,13.04
2023-04-02T15:33:38.022Z,13.21
2023-04-02T15:36:34.183Z,12.81
2023-04-02T15:39:28.319Z,12.30
2023-04-02T15:42:04.287Z,11.84
2023-04-02T15:44:31.106Z,11.61
2023-04-02T15:47:06.784Z,11.72
2023-04-02T15:49:55.305Z,12.33
2023-04-02T15:52:24.894Z,12.73
2023-04-02T15:55:19.324Z,12.89
2023-04-02T15:57:54.774Z,12.73
2023-04-02T16:00:26.937Z,12.24
2023-04-02T16:03:27.978Z,12.09
2023-04-02T16:06:03.761Z,11.82
2023-04-02T16:08:39.454Z,11.86
2023-04-02T16:11:11.392Z,11.64
2023-04-02T16:13:39.779Z,11.31
2023-04-02T16:16:06.601Z,11.05
2023-04-02T16:18:38.640Z,10.76
2023-04-02T16:21:06.738Z,11.16
2023-04-02T16:23:38.507Z,11.56
2023-04-02T16:26:26.870Z,11.54
2023-04-02T16:29:14.876Z,11.17
2023-04-02T16:31:57.565Z,11.24
2023-04-02T16:35:23.916Z,11.06
2023-04-02T16:38:00.967Z,11.19
2023-04-02T16:41:06.983Z,11.34
2023-04-02T16:44:02.817Z,11.41
2023-04-02T16:47:12.191Z,11.60
2023-04-02T16:49:41.762Z,11.79
2023-04-02T16:52:13.891Z,11.81
2023-04-02T16:54:47.380Z,11.81
2023-04-02T16:57:20.753Z,11.78
2023-04-02T16:59:50.533Z,11.90
2023-04-02T17:02:55.221Z,12.01
2023-04-02T17:05:32.609Z,12.02
2023-04-02T17:08:16.061Z,11.94
2023-04-02T17:10:51.863Z,11.75
2023-04-02T17:13:21.717Z,11.42
2023-04-02T17:16:28.986Z,11.15
2023-04-02T17:18:58.173Z,10.85
2023-04-02T17:21:27.485Z,10.55
2023-04-02T17:24:02.231Z,10.44
2023-04-02T17:26:31.635Z,10.39
2023-04-02T17:29:01.671Z,10.24
2023-04-02T17:31:34.295Z,10.10
2023-04-02T17:34:11.160Z,9.86
2023-04-02T17:36:43.322Z,9.74
2023-04-02T17:39:21.615Z,9.62
2023-04-02T17:42:13.224Z,9.53
2023-04-02T17:45:01.618Z,9.42
2023-04-02T17:47:35.231Z,9.36
2023-04-02T17:50:29.939Z,9.26
2023-04-02T17:52:58.438Z,9.25
2023-04-02T17:55:50.110Z,9.28
2023-04-02T17:58:52.304Z,9.19
2023-04-02T18:01:29.219Z,9.23
2023-04-02T18:04:05.115Z,9.19
2023-04-02T18:06:50.682Z,9.12
2023-04-02T18:09:35.882Z,9.08
2023-04-02T18:12:17.824Z,8.93
2023-04-02T18:15:17.005Z,8.95
2023-04-02T18:17:59.276Z,8.94
2023-04-02T18:20:32.375Z,8.92
2023-04-02T18:23:12.550Z,8.85
2023-04-02T18:26:01.757Z,8.85
2023-04-02T18:28:34.469Z,8.80
2023-04-02T18:31:08.405Z,8.78
2023-04-02T18:33:56.189Z,8.86
2023-04-02T18:36:44.718Z,8.82
2023-04-02T18:39:32.948Z,8.83
2023-04-02T18:42:12.073Z,8.83
2023-04-02T18:44:45.646Z,8.74
2023-04-02T18:47:25.676Z,8.68
2023-04-02T18:50:04.667Z,8.58
2023-04-02T18:52:31.483Z,8.66
2023-04-02T18:55:06.397Z,8.67
2023-04-02T18:57:34.287Z,8.55
2023-04-02T19:00:06.460Z,8.51
2023-04-02T19:02:53.748Z,8.53
2023-04-02T19:05:33.148Z,8.45
2023-04-02T19:08:19.224Z,8.42
2023-04-02T19:10:48.882Z,8.43
2023-04-02T19:13:23.285Z,8.40
2023-04-02T19:15:56.076Z,8.35
2023-04-02T19:18:22.752Z,8.31
2023-04-02T19:21:02.814Z,8.21
2023-04-02T19:23:42.209Z,8.18
2023-04-02T19:26:13.032Z,8.15
2023-04-02T19:28:58.131Z,8.09
2023-04-02T19:31:35.804Z,8.05
2023-04-02T19:34:12.370Z,8.08
2023-04-02T19:36:59.094Z,8.00
2023-04-02T19:39:47.033Z,7.95
2023-04-02T19:42:40.158Z,7.90
2023-04-02T19:45:18.306Z,7.83
2023-04-02T19:47:45.087Z,7.87
2023-04-02T19:50:11.802Z,7.81
2023-04-02T19:52:38.530Z,7.89
2023-04-02T19:55:05.591Z,7.84
2023-04-02T19:57:32.969Z,7.84
2023-04-02T19:59:59.804Z,7.74
2023-04-02T20:02:26.610Z,7.69
2023-04-02T20:04:53.487Z,7.70
2023-04-02T20:07:20.312Z,7.61
2023-04-02T20:09:47.070Z,7.54
2023-04-02T20:12:14.020Z,7.56
2023-04-02T20:14:40.761Z,7.63
2023-04-02T20:17:07.641Z,7.55
2023-04-02T20:19:34.503Z,7.63
2023-04-02T20:22:01.241Z,7.46
2023-04-02T20:24:27.956Z,7.52
2023-04-02T20:26:54.645Z,7.51
2023-04-02T20:29:23.100Z,7.42
2023-04-02T20:31:49.776Z,7.34
2023-04-02T20:34:16.806Z,7.38
2023-04-02T20:36:44.633Z,7.27
2023-04-02T20:39:12.232Z,7.15
2023-04-02T20:41:38.927Z,7.25
2023-04-02T20:44:05.724Z,7.39
2023-04-02T20:46:32.713Z,7.39
2023-04-02T20:48:59.503Z,7.24
2023-04-02T20:51:26.285Z,7.20
2023-04-02T20:53:53.970Z,7.06
2023-04-02T20:56:22.521Z,7.07
2023-04-02T20:58:49.833Z,7.19
2023-04-02T21:01:21.100Z,7.11
2023-04-02T21:03:55.680Z,7.16
2023-04-02T21:06:24.623Z,7.00
2023-04-02T21:08:52.107Z,6.97
2023-04-02T21:11:19.954Z,7.03
2023-04-02T21:13:46.754Z,6.90
2023-04-02T21:16:15.233Z,6.76
2023-04-02T21:18:42.447Z,6.75
2023-04-02T21:21:13.490Z,6.89
2023-04-02T21:23:41.504Z,6.99
2023-04-02T21:26:10.485Z,7.00
2023-04-02T21:28:37.180Z,6.86
2023-04-02T21:31:37.362Z,6.91
2023-04-02T21:34:05.230Z,6.87
2023-04-02T21:36:35.410Z,6.73
2023-04-02T21:39:20.102Z,6.79
2023-04-02T21:41:50.162Z,6.57
2023-04-02T21:44:20.843Z,6.60
2023-04-02T21:46:49.350Z,6.48
2023-04-02T21:49:19.893Z,6.38
2023-04-02T21:51:47.393Z,6.35
2023-04-02T21:54:14.540Z,6.37
2023-04-02T21:56:43.506Z,6.44
2023-04-02T21:59:11.548Z,6.42
2023-04-02T22:01:43.746Z,6.41
2023-04-02T22:04:16.674Z,6.35
2023-04-02T22:06:43.962Z,6.21
2023-04-02T22:09:14.219Z,6.25
2023-04-02T22:11:44.239Z,6.32
2023-04-02T22:14:11.625Z,6.23
2023-04-02T22:16:38.834Z,6.26
2023-04-02T22:19:08.602Z,6.40
2023-04-02T22:21:36.356Z,6.41
2023-04-02T22:24:04.615Z,6.35
2023-04-02T22:26:32.804Z,6.30
2023-04-02T22:29:00.521Z,6.21
2023-04-02T22:31:30.479Z,6.19
2023-04-02T22:33:58.284Z,6.10
2023-04-02T22:36:26.703Z,6.07
2023-04-02T22:38:53.694Z,6.15
2023-04-02T22:41:22.789Z,5.90
2023-04-02T22:43:49.728Z,5.81
2023-04-02T22:46:17.800Z,5.72
2023-04-02T22:48:45.539Z,5.90
2023-04-02T22:51:14.461Z,5.87
2023-04-02T22:53:41.886Z,5.86
2023-04-02T22:56:20.306Z,5.90
2023-04-02T22:58:47.108Z,6.00
2023-04-02T23:01:17.317Z,6.02
2023-04-02T23:03:44.470Z,6.03
2023-04-02T23:06:12.922Z,5.87
2023-04-02T23:08:39.904Z,5.80
2023-04-02T23:11:15.143Z,5.75
2023-04-02T23:13:43.751Z,5.76
2023-04-02T23:16:13.149Z,5.80
2023-04-02T23:18:40.721Z,5.79
2023-04-02T23:21:07.717Z,5.65
2023-04-02T23:23:35.245Z,5.66
2023-04-02T23:26:08.024Z,5.57
2023-04-02T23:28:36.131Z,5.63
2023-04-02T23:31:04.629Z,5.59
2023-04-02T23:33:31.368Z,5.45
2023-04-02T23:35:58.789Z,5.56
2023-04-02T23:38:25.982Z,5.41
2023-04-02T23:40:53.768Z,5.37
2023-04-02T23:43:20.662Z,5.42
2023-04-02T23:45:50.730Z,5.43
2023-04-02T23:48:17.744Z,5.37
2023-04-02T23:50:45.588Z,5.45
2023-04-02T23:53:12.736Z,5.37
2023-04-02T23:55:39.543Z,5.31
2023-04-02T23:58:06.399Z,5.25
